sensor_id;sensor_type;location;lat;lon;timestamp;temperature;humidity
72602;DHT22;60644;55.858;37.390;2022-12-11T00:01:20;1.49;76.66
72602;DHT22;60644;55.858;37.390;2022-12-11T00:03:46;1.52;76.20
72602;DHT22;60644;55.858;37.390;2022-12-11T00:06:16;1.45;76.33
72602;DHT22;60644;55.858;37.390;2022-12-11T00:08:42;1.36;76.06
72602;DHT22;60644;55.858;37.390;2022-12-11T00:11:14;1.32;76.26
72602;DHT22;60644;55.858;37.390;2022-12-11T00:13:40;1.31;76.34
72602;DHT22;60644;55.858;37.390;2022-12-11T00:16:06;1.27;76.18
72602;DHT22;60644;55.858;37.390;2022-12-11T00:18:34;1.26;76.42
72602;DHT22;60644;55.858;37.390;2022-12-11T00:21:05;1.26;76.83
72602;DHT22;60644;55.858;37.390;2022-12-11T00:23:33;1.24;76.66
72602;DHT22;60644;55.858;37.390;2022-12-11T00:25:59;1.19;76.88
72602;DHT22;60644;55.858;37.390;2022-12-11T00:28:25;1.22;77.04
72602;DHT22;60644;55.858;37.390;2022-12-11T00:30:51;1.24;76.89
72602;DHT22;60644;55.858;37.390;2022-12-11T00:33:16;1.27;76.86
72602;DHT22;60644;55.858;37.390;2022-12-11T00:35:44;1.35;76.78
72602;DHT22;60644;55.858;37.390;2022-12-11T00:38:16;1.37;76.86
72602;DHT22;60644;55.858;37.390;2022-12-11T00:40:43;1.42;76.98
72602;DHT22;60644;55.858;37.390;2022-12-11T00:43:09;1.42;76.52
72602;DHT22;60644;55.858;37.390;2022-12-11T00:45:40;1.42;76.71
72602;DHT22;60644;55.858;37.390;2022-12-11T00:48:06;1.46;76.60
72602;DHT22;60644;55.858;37.390;2022-12-11T00:50:33;1.43;76.54
72602;DHT22;60644;55.858;37.390;2022-12-11T00:53:00;1.39;76.53
72602;DHT22;60644;55.858;37.390;2022-12-11T00:55:27;1.36;76.53
72602;DHT22;60644;55.858;37.390;2022-12-11T00:57:54;1.36;76.17
72602;DHT22;60644;55.858;37.390;2022-12-11T01:00:20;1.35;76.44
72602;DHT22;60644;55.858;37.390;2022-12-11T01:02:47;1.36;76.81
72602;DHT22;60644;55.858;37.390;2022-12-11T01:05:13;1.42;76.86
72602;DHT22;60644;55.858;37.390;2022-12-11T01:07:40;1.50;76.60
72602;DHT22;60644;55.858;37.390;2022-12-11T01:10:05;1.48;76.42
72602;DHT22;60644;55.858;37.390;2022-12-11T01:12:57;1.45;76.66
72602;DHT22;60644;55.858;37.390;2022-12-11T01:15:29;1.41;76.19
72602;DHT22;60644;55.858;37.390;2022-12-11T01:17:56;1.37;76.17
72602;DHT22;60644;55.858;37.390;2022-12-11T01:20:23;1.32;75.83
72602;DHT22;60644;55.858;37.390;2022-12-11T01:22:55;1.24;76.05
72602;DHT22;60644;55.858;37.390;2022-12-11T01:25:21;1.23;75.73
72602;DHT22;60644;55.858;37.390;2022-12-11T01:27:50;1.16;75.66
72602;DHT22;60644;55.858;37.390;2022-12-11T01:30:16;1.13;75.99
72602;DHT22;60644;55.858;37.390;2022-12-11T01:32:42;1.12;76.08
72602;DHT22;60644;55.858;37.390;2022-12-11T01:35:09;1.08;76.68
72602;DHT22;60644;55.858;37.390;2022-12-11T01:37:35;1.08;76.01
72602;DHT22;60644;55.858;37.390;2022-12-11T01:40:03;1.06;76.36
72602;DHT22;60644;55.858;37.390;2022-12-11T01:42:30;1.04;77.12
72602;DHT22;60644;55.858;37.390;2022-12-11T01:45:40;1.04;75.86
72602;DHT22;60644;55.858;37.390;2022-12-11T01:48:13;0.94;75.99
72602;DHT22;60644;55.858;37.390;2022-12-11T01:50:48;0.90;76.42
72602;DHT22;60644;55.858;37.390;2022-12-11T01:53:27;0.90;76.00
72602;DHT22;60644;55.858;37.390;2022-12-11T01:55:55;0.94;76.06
72602;DHT22;60644;55.858;37.390;2022-12-11T01:58:31;0.91;76.07
72602;DHT22;60644;55.858;37.390;2022-12-11T02:00:59;0.91;76.25
72602;DHT22;60644;55.858;37.390;2022-12-11T02:03:25;0.95;76.41
72602;DHT22;60644;55.858;37.390;2022-12-11T02:05:51;0.94;76.10
72602;DHT22;60644;55.858;37.390;2022-12-11T02:08:17;0.93;76.11
72602;DHT22;60644;55.858;37.390;2022-12-11T02:11:02;0.95;76.07
72602;DHT22;60644;55.858;37.390;2022-12-11T02:14:02;0.94;76.86
72602;DHT22;60644;55.858;37.390;2022-12-11T02:16:46;0.91;76.26
72602;DHT22;60644;55.858;37.390;2022-12-11T02:28:28;0.93;77.52
72602;DHT22;60644;55.858;37.390;2022-12-11T02:31:08;0.94;77.34
72602;DHT22;60644;55.858;37.390;2022-12-11T02:33:43;0.96;76.43
72602;DHT22;60644;55.858;37.390;2022-12-11T02:36:11;0.91;76.44
72602;DHT22;60644;55.858;37.390;2022-12-11T02:38:40;0.90;76.74
72602;DHT22;60644;55.858;37.390;2022-12-11T02:41:08;0.91;76.89
72602;DHT22;60644;55.858;37.390;2022-12-11T02:43:36;0.91;76.89
72602;DHT22;60644;55.858;37.390;2022-12-11T02:46:05;0.87;77.45
72602;DHT22;60644;55.858;37.390;2022-12-11T02:48:32;0.86;77.21
72602;DHT22;60644;55.858;37.390;2022-12-11T02:51:00;0.84;77.36
72602;DHT22;60644;55.858;37.390;2022-12-11T02:53:28;0.84;77.24
72602;DHT22;60644;55.858;37.390;2022-12-11T02:56:01;0.81;77.59
72602;DHT22;60644;55.858;37.390;2022-12-11T02:58:30;0.79;77.22
72602;DHT22;60644;55.858;37.390;2022-12-11T03:00:56;0.81;77.49
72602;DHT22;60644;55.858;37.390;2022-12-11T03:03:23;0.84;77.71
72602;DHT22;60644;55.858;37.390;2022-12-11T03:05:49;0.89;78.05
72602;DHT22;60644;55.858;37.390;2022-12-11T03:08:15;0.87;77.89
72602;DHT22;60644;55.858;37.390;2022-12-11T03:10:43;0.84;77.68
72602;DHT22;60644;55.858;37.390;2022-12-11T03:13:18;0.82;77.37
72602;DHT22;60644;55.858;37.390;2022-12-11T03:18:20;0.78;77.92
72602;DHT22;60644;55.858;37.390;2022-12-11T03:21:03;0.76;77.63
72602;DHT22;60644;55.858;37.390;2022-12-11T03:23:33;0.65;77.62
72602;DHT22;60644;55.858;37.390;2022-12-11T03:26:05;0.60;78.10
72602;DHT22;60644;55.858;37.390;2022-12-11T03:28:46;0.63;76.80
72602;DHT22;60644;55.858;37.390;2022-12-11T03:31:27;0.54;77.07
72602;DHT22;60644;55.858;37.390;2022-12-11T03:33:58;0.52;77.81
72602;DHT22;60644;55.858;37.390;2022-12-11T03:36:35;0.57;77.05
72602;DHT22;60644;55.858;37.390;2022-12-11T03:39:10;0.62;77.19
72602;DHT22;60644;55.858;37.390;2022-12-11T03:41:38;0.58;77.34
72602;DHT22;60644;55.858;37.390;2022-12-11T03:44:05;0.58;77.21
72602;DHT22;60644;55.858;37.390;2022-12-11T03:46:35;0.53;77.69
72602;DHT22;60644;55.858;37.390;2022-12-11T03:49:08;0.52;77.64
72602;DHT22;60644;55.858;37.390;2022-12-11T03:51:36;0.52;77.46
72602;DHT22;60644;55.858;37.390;2022-12-11T03:54:02;0.49;78.78
72602;DHT22;60644;55.858;37.390;2022-12-11T03:56:30;0.53;76.95
72602;DHT22;60644;55.858;37.390;2022-12-11T03:58:57;0.48;77.72
72602;DHT22;60644;55.858;37.390;2022-12-11T04:01:23;0.49;77.56
72602;DHT22;60644;55.858;37.390;2022-12-11T04:03:49;0.46;77.21
72602;DHT22;60644;55.858;37.390;2022-12-11T04:06:15;0.50;77.68
72602;DHT22;60644;55.858;37.390;2022-12-11T04:08:40;0.55;77.52
72602;DHT22;60644;55.858;37.390;2022-12-11T04:11:06;0.58;77.92
72602;DHT22;60644;55.858;37.390;2022-12-11T04:13:50;0.58;78.24
72602;DHT22;60644;55.858;37.390;2022-12-11T04:16:36;0.53;78.19
72602;DHT22;60644;55.858;37.390;2022-12-11T04:19:03;0.55;77.67
72602;DHT22;60644;55.858;37.390;2022-12-11T04:21:47;0.53;77.72
72602;DHT22;60644;55.858;37.390;2022-12-11T04:24:32;0.48;77.74
72602;DHT22;60644;55.858;37.390;2022-12-11T04:27:00;0.43;78.21
72602;DHT22;60644;55.858;37.390;2022-12-11T04:29:26;0.42;78.88
72602;DHT22;60644;55.858;37.390;2022-12-11T04:31:52;0.43;78.34
72602;DHT22;60644;55.858;37.390;2022-12-11T04:34:18;0.40;78.68
72602;DHT22;60644;55.858;37.390;2022-12-11T04:36:44;0.40;77.54
72602;DHT22;60644;55.858;37.390;2022-12-11T04:39:10;0.36;77.17
72602;DHT22;60644;55.858;37.390;2022-12-11T04:41:36;0.30;77.58
72602;DHT22;60644;55.858;37.390;2022-12-11T04:44:04;0.28;77.15
72602;DHT22;60644;55.858;37.390;2022-12-11T04:46:30;0.22;77.47
72602;DHT22;60644;55.858;37.390;2022-12-11T04:48:56;0.21;77.15
72602;DHT22;60644;55.858;37.390;2022-12-11T04:51:22;0.24;77.16
72602;DHT22;60644;55.858;37.390;2022-12-11T04:53:48;0.24;77.61
72602;DHT22;60644;55.858;37.390;2022-12-11T04:56:14;0.24;77.67
72602;DHT22;60644;55.858;37.390;2022-12-11T04:58:42;0.31;77.75
72602;DHT22;60644;55.858;37.390;2022-12-11T05:01:12;0.36;77.47
72602;DHT22;60644;55.858;37.390;2022-12-11T05:03:39;0.35;77.29
72602;DHT22;60644;55.858;37.390;2022-12-11T05:06:05;0.35;77.66
72602;DHT22;60644;55.858;37.390;2022-12-11T05:08:34;0.39;77.66
72602;DHT22;60644;55.858;37.390;2022-12-11T05:11:02;0.37;77.89
72602;DHT22;60644;55.858;37.390;2022-12-11T05:13:29;0.36;78.15
72602;DHT22;60644;55.858;37.390;2022-12-11T05:15:55;0.35;78.76
72602;DHT22;60644;55.858;37.390;2022-12-11T05:18:21;0.33;78.51
72602;DHT22;60644;55.858;37.390;2022-12-11T05:20:59;0.32;78.71
72602;DHT22;60644;55.858;37.390;2022-12-11T05:23:25;0.29;78.57
72602;DHT22;60644;55.858;37.390;2022-12-11T05:25:56;0.29;78.99
72602;DHT22;60644;55.858;37.390;2022-12-11T05:28:23;0.30;78.57
72602;DHT22;60644;55.858;37.390;2022-12-11T05:31:04;0.29;78.09
72602;DHT22;60644;55.858;37.390;2022-12-11T05:33:30;0.25;78.52
72602;DHT22;60644;55.858;37.390;2022-12-11T05:35:56;0.27;78.88
72602;DHT22;60644;55.858;37.390;2022-12-11T05:38:23;0.24;78.50
72602;DHT22;60644;55.858;37.390;2022-12-11T05:41:03;0.27;78.49
72602;DHT22;60644;55.858;37.390;2022-12-11T05:43:31;0.27;78.29
72602;DHT22;60644;55.858;37.390;2022-12-11T05:46:09;0.28;77.79
72602;DHT22;60644;55.858;37.390;2022-12-11T05:48:36;0.31;78.01
72602;DHT22;60644;55.858;37.390;2022-12-11T05:51:03;0.36;77.76
72602;DHT22;60644;55.858;37.390;2022-12-11T05:53:29;0.37;77.98
72602;DHT22;60644;55.858;37.390;2022-12-11T05:56:06;0.45;77.25
72602;DHT22;60644;55.858;37.390;2022-12-11T05:58:33;0.37;77.66
72602;DHT22;60644;55.858;37.390;2022-12-11T06:00:59;0.42;77.55
72602;DHT22;60644;55.858;37.390;2022-12-11T06:03:26;0.46;77.56
72602;DHT22;60644;55.858;37.390;2022-12-11T06:05:51;0.52;77.67
72602;DHT22;60644;55.858;37.390;2022-12-11T06:08:17;0.62;77.70
72602;DHT22;60644;55.858;37.390;2022-12-11T06:10:48;0.67;77.50
72602;DHT22;60644;55.858;37.390;2022-12-11T06:13:14;0.68;77.40
72602;DHT22;60644;55.858;37.390;2022-12-11T06:15:41;0.73;77.37
72602;DHT22;60644;55.858;37.390;2022-12-11T06:18:07;0.76;77.43
72602;DHT22;60644;55.858;37.390;2022-12-11T06:20:33;0.77;77.01
72602;DHT22;60644;55.858;37.390;2022-12-11T06:23:00;0.63;76.80
72602;DHT22;60644;55.858;37.390;2022-12-11T06:25:27;0.57;76.75
72602;DHT22;60644;55.858;37.390;2022-12-11T06:27:52;0.52;76.82
72602;DHT22;60644;55.858;37.390;2022-12-11T06:30:18;0.51;76.98
72602;DHT22;60644;55.858;37.390;2022-12-11T06:32:44;0.49;76.46
72602;DHT22;60644;55.858;37.390;2022-12-11T06:35:10;0.40;76.55
72602;DHT22;60644;55.858;37.390;2022-12-11T06:37:37;0.38;76.40
72602;DHT22;60644;55.858;37.390;2022-12-11T06:40:04;0.38;76.41
72602;DHT22;60644;55.858;37.390;2022-12-11T06:42:30;0.42;76.21
72602;DHT22;60644;55.858;37.390;2022-12-11T06:44:56;0.30;76.40
72602;DHT22;60644;55.858;37.390;2022-12-11T06:47:28;0.29;76.38
72602;DHT22;60644;55.858;37.390;2022-12-11T06:49:55;0.31;76.26
72602;DHT22;60644;55.858;37.390;2022-12-11T06:52:22;0.32;76.37
72602;DHT22;60644;55.858;37.390;2022-12-11T06:54:49;0.25;76.33
72602;DHT22;60644;55.858;37.390;2022-12-11T06:57:15;0.24;76.27
72602;DHT22;60644;55.858;37.390;2022-12-11T06:59:41;0.25;75.99
72602;DHT22;60644;55.858;37.390;2022-12-11T07:02:14;0.17;76.18
72602;DHT22;60644;55.858;37.390;2022-12-11T07:04:41;0.17;75.95
72602;DHT22;60644;55.858;37.390;2022-12-11T07:07:07;0.14;76.02
72602;DHT22;60644;55.858;37.390;2022-12-11T07:09:33;0.16;76.09
72602;DHT22;60644;55.858;37.390;2022-12-11T07:11:59;0.16;76.12
72602;DHT22;60644;55.858;37.390;2022-12-11T07:14:25;0.19;76.12
72602;DHT22;60644;55.858;37.390;2022-12-11T07:16:51;0.22;76.18
72602;DHT22;60644;55.858;37.390;2022-12-11T07:19:17;0.32;76.23
72602;DHT22;60644;55.858;37.390;2022-12-11T07:21:43;0.30;75.97
72602;DHT22;60644;55.858;37.390;2022-12-11T07:24:09;0.23;75.86
72602;DHT22;60644;55.858;37.390;2022-12-11T07:26:34;0.24;75.86
72602;DHT22;60644;55.858;37.390;2022-12-11T07:29:00;0.23;75.92
72602;DHT22;60644;55.858;37.390;2022-12-11T07:31:28;0.19;76.17
72602;DHT22;60644;55.858;37.390;2022-12-11T07:33:59;0.29;76.00
72602;DHT22;60644;55.858;37.390;2022-12-11T07:36:27;0.29;76.04
72602;DHT22;60644;55.858;37.390;2022-12-11T07:38:54;0.32;75.89
72602;DHT22;60644;55.858;37.390;2022-12-11T07:41:21;0.29;75.76
72602;DHT22;60644;55.858;37.390;2022-12-11T07:43:52;0.28;75.51
72602;DHT22;60644;55.858;37.390;2022-12-11T07:46:22;0.23;75.38
72602;DHT22;60644;55.858;37.390;2022-12-11T07:48:49;0.18;75.58
72602;DHT22;60644;55.858;37.390;2022-12-11T07:51:18;0.21;75.48
72602;DHT22;60644;55.858;37.390;2022-12-11T07:53:46;0.21;75.63
72602;DHT22;60644;55.858;37.390;2022-12-11T07:56:13;0.28;75.60
72602;DHT22;60644;55.858;37.390;2022-12-11T07:58:40;0.30;75.67
72602;DHT22;60644;55.858;37.390;2022-12-11T08:01:14;0.39;75.70
72602;DHT22;60644;55.858;37.390;2022-12-11T08:03:41;0.51;75.60
72602;DHT22;60644;55.858;37.390;2022-12-11T08:06:07;0.60;75.56
72602;DHT22;60644;55.858;37.390;2022-12-11T08:08:33;0.66;75.31
72602;DHT22;60644;55.858;37.390;2022-12-11T08:11:03;0.69;75.32
72602;DHT22;60644;55.858;37.390;2022-12-11T08:13:30;0.76;75.33
72602;DHT22;60644;55.858;37.390;2022-12-11T08:15:56;0.82;75.22
72602;DHT22;60644;55.858;37.390;2022-12-11T08:18:22;0.78;75.05
72602;DHT22;60644;55.858;37.390;2022-12-11T08:20:48;0.74;75.18
72602;DHT22;60644;55.858;37.390;2022-12-11T08:23:14;0.75;75.18
72602;DHT22;60644;55.858;37.390;2022-12-11T08:25:40;0.77;75.18
72602;DHT22;60644;55.858;37.390;2022-12-11T08:28:06;0.81;75.15
72602;DHT22;60644;55.858;37.390;2022-12-11T08:30:32;0.86;75.09
72602;DHT22;60644;55.858;37.390;2022-12-11T08:32:58;0.93;75.00
72602;DHT22;60644;55.858;37.390;2022-12-11T08:35:25;1.03;74.89
72602;DHT22;60644;55.858;37.390;2022-12-11T08:37:50;1.10;74.92
72602;DHT22;60644;55.858;37.390;2022-12-11T08:40:16;1.14;74.92
72602;DHT22;60644;55.858;37.390;2022-12-11T08:42:42;1.12;74.68
72602;DHT22;60644;55.858;37.390;2022-12-11T08:45:08;1.16;74.60
72602;DHT22;60644;55.858;37.390;2022-12-11T08:47:35;1.17;74.37
72602;DHT22;60644;55.858;37.390;2022-12-11T08:50:01;1.19;74.53
72602;DHT22;60644;55.858;37.390;2022-12-11T08:52:28;1.18;74.46
72602;DHT22;60644;55.858;37.390;2022-12-11T08:54:56;1.16;74.37
72602;DHT22;60644;55.858;37.390;2022-12-11T08:57:23;1.12;74.36
72602;DHT22;60644;55.858;37.390;2022-12-11T08:59:48;1.12;74.38
72602;DHT22;60644;55.858;37.390;2022-12-11T09:02:14;1.19;74.43
72602;DHT22;60644;55.858;37.390;2022-12-11T09:04:40;1.20;74.25
72602;DHT22;60644;55.858;37.390;2022-12-11T09:07:07;1.12;73.31
72602;DHT22;60644;55.858;37.390;2022-12-11T09:09:32;1.11;73.74
72602;DHT22;60644;55.858;37.390;2022-12-11T09:11:58;1.10;73.90
72602;DHT22;60644;55.858;37.390;2022-12-11T09:14:26;1.09;74.16
72602;DHT22;60644;55.858;37.390;2022-12-11T09:16:52;1.11;73.86
72602;DHT22;60644;55.858;37.390;2022-12-11T09:19:18;1.08;74.31
72602;DHT22;60644;55.858;37.390;2022-12-11T09:21:44;0.98;74.34
72602;DHT22;60644;55.858;37.390;2022-12-11T09:24:11;0.98;74.61
72602;DHT22;60644;55.858;37.390;2022-12-11T09:26:37;0.89;74.36
72602;DHT22;60644;55.858;37.390;2022-12-11T09:29:04;0.82;74.21
72602;DHT22;60644;55.858;37.390;2022-12-11T09:31:33;0.77;73.99
72602;DHT22;60644;55.858;37.390;2022-12-11T09:34:02;0.71;74.18
72602;DHT22;60644;55.858;37.390;2022-12-11T09:36:29;0.72;74.18
72602;DHT22;60644;55.858;37.390;2022-12-11T09:38:55;0.67;74.38
72602;DHT22;60644;55.858;37.390;2022-12-11T09:44:30;0.75;74.45
72602;DHT22;60644;55.858;37.390;2022-12-11T09:46:57;0.72;74.24
72602;DHT22;60644;55.858;37.390;2022-12-11T09:49:35;0.65;74.22
72602;DHT22;60644;55.858;37.390;2022-12-11T09:52:19;0.67;74.37
72602;DHT22;60644;55.858;37.390;2022-12-11T09:54:53;0.62;73.99
72602;DHT22;60644;55.858;37.390;2022-12-11T10:02:45;0.59;74.28
72602;DHT22;60644;55.858;37.390;2022-12-11T10:05:30;0.61;74.22
72602;DHT22;60644;55.858;37.390;2022-12-11T10:08:32;0.55;74.15
72602;DHT22;60644;55.858;37.390;2022-12-11T10:13:44;0.57;74.25
72602;DHT22;60644;55.858;37.390;2022-12-11T10:18:52;0.66;74.15
72602;DHT22;60644;55.858;37.390;2022-12-11T10:21:18;0.74;74.18
72602;DHT22;60644;55.858;37.390;2022-12-11T10:23:52;0.74;73.77
72602;DHT22;60644;55.858;37.390;2022-12-11T10:26:20;0.80;73.83
72602;DHT22;60644;55.858;37.390;2022-12-11T10:28:47;0.91;73.95
72602;DHT22;60644;55.858;37.390;2022-12-11T10:31:27;1.01;73.90
72602;DHT22;60644;55.858;37.390;2022-12-11T10:34:00;1.04;74.07
72602;DHT22;60644;55.858;37.390;2022-12-11T10:36:29;0.97;73.73
72602;DHT22;60644;55.858;37.390;2022-12-11T10:38:56;0.94;73.60
72602;DHT22;60644;55.858;37.390;2022-12-11T10:41:43;0.92;73.73
72602;DHT22;60644;55.858;37.390;2022-12-11T10:44:22;0.89;73.57
72602;DHT22;60644;55.858;37.390;2022-12-11T10:47:10;0.95;73.94
72602;DHT22;60644;55.858;37.390;2022-12-11T10:49:37;0.92;73.64
72602;DHT22;60644;55.858;37.390;2022-12-11T10:52:16;0.88;73.49
72602;DHT22;60644;55.858;37.390;2022-12-11T10:54:45;0.87;73.74
72602;DHT22;60644;55.858;37.390;2022-12-11T10:57:14;0.91;73.82
72602;DHT22;60644;55.858;37.390;2022-12-11T10:59:44;0.96;73.90
72602;DHT22;60644;55.858;37.390;2022-12-11T11:04:46;0.86;73.66
72602;DHT22;60644;55.858;37.390;2022-12-11T11:07:13;0.78;73.70
72602;DHT22;60644;55.858;37.390;2022-12-11T11:09:41;0.74;73.87
72602;DHT22;60644;55.858;37.390;2022-12-11T11:14:44;0.63;73.83
72602;DHT22;60644;55.858;37.390;2022-12-11T11:17:14;0.58;73.86
72602;DHT22;60644;55.858;37.390;2022-12-11T11:19:40;0.58;73.99
72602;DHT22;60644;55.858;37.390;2022-12-11T11:22:15;0.53;74.02
72602;DHT22;60644;55.858;37.390;2022-12-11T11:24:52;0.55;74.14
72602;DHT22;60644;55.858;37.390;2022-12-11T11:30:01;0.53;74.21
72602;DHT22;60644;55.858;37.390;2022-12-11T11:32:35;0.54;74.28
72602;DHT22;60644;55.858;37.390;2022-12-11T11:37:42;0.61;74.41
72602;DHT22;60644;55.858;37.390;2022-12-11T11:40:15;0.65;74.20
72602;DHT22;60644;55.858;37.390;2022-12-11T11:43:03;0.66;74.23
72602;DHT22;60644;55.858;37.390;2022-12-11T11:45:43;0.63;74.12
72602;DHT22;60644;55.858;37.390;2022-12-11T11:51:11;0.58;74.15
72602;DHT22;60644;55.858;37.390;2022-12-11T11:53:38;0.54;74.07
72602;DHT22;60644;55.858;37.390;2022-12-11T11:56:54;0.50;74.09
72602;DHT22;60644;55.858;37.390;2022-12-11T11:59:05;0.45;74.25
72602;DHT22;60644;55.858;37.390;2022-12-11T12:01:32;0.44;74.44
72602;DHT22;60644;55.858;37.390;2022-12-11T12:03:59;0.35;74.15
72602;DHT22;60644;55.858;37.390;2022-12-11T12:06:33;0.30;74.19
72602;DHT22;60644;55.858;37.390;2022-12-11T12:21:33;0.15;74.91
72602;DHT22;60644;55.858;37.390;2022-12-11T12:27:21;0.10;74.99
72602;DHT22;60644;55.858;37.390;2022-12-11T12:30:06;0.08;75.33
72602;DHT22;60644;55.858;37.390;2022-12-11T12:35:37;0.07;74.98
72602;DHT22;60644;55.858;37.390;2022-12-11T12:38:18;0.13;74.85
72602;DHT22;60644;55.858;37.390;2022-12-11T12:41:00;0.10;74.92
72602;DHT22;60644;55.858;37.390;2022-12-11T12:48:43;0.13;74.76
72602;DHT22;60644;55.858;37.390;2022-12-11T12:51:12;0.05;74.91
72602;DHT22;60644;55.858;37.390;2022-12-11T12:53:40;0.04;75.37
72602;DHT22;60644;55.858;37.390;2022-12-11T12:56:10;0.05;74.89
72602;DHT22;60644;55.858;37.390;2022-12-11T12:58:44;0.04;75.02
72602;DHT22;60644;55.858;37.390;2022-12-11T13:01:16;0.03;75.53
72602;DHT22;60644;55.858;37.390;2022-12-11T13:03:53;0.02;75.11
72602;DHT22;60644;55.858;37.390;2022-12-11T13:06:37;0.03;75.60
72602;DHT22;60644;55.858;37.390;2022-12-11T13:09:20;0.01;75.52
72602;DHT22;60644;55.858;37.390;2022-12-11T13:11:48;0.01;75.27
72602;DHT22;60644;55.858;37.390;2022-12-11T13:19:32;0.04;75.28
72602;DHT22;60644;55.858;37.390;2022-12-11T13:26:07;0.06;75.25
72602;DHT22;60644;55.858;37.390;2022-12-11T13:31:03;0.01;76.07
72602;DHT22;60644;55.858;37.390;2022-12-11T13:33:31;0.03;75.41
72602;DHT22;60644;55.858;37.390;2022-12-11T13:38:37;0.03;75.76
72602;DHT22;60644;55.858;37.390;2022-12-11T13:41:09;0.04;75.76
72602;DHT22;60644;55.858;37.390;2022-12-11T13:43:37;0.06;75.67
72602;DHT22;60644;55.858;37.390;2022-12-11T13:46:08;0.06;75.87
72602;DHT22;60644;55.858;37.390;2022-12-11T13:48:45;0.06;75.81
72602;DHT22;60644;55.858;37.390;2022-12-11T13:51:15;0.09;75.89
72602;DHT22;60644;55.858;37.390;2022-12-11T13:53:42;0.09;75.60
72602;DHT22;60644;55.858;37.390;2022-12-11T13:56:17;0.09;75.73
72602;DHT22;60644;55.858;37.390;2022-12-11T13:58:43;0.07;76.18
72602;DHT22;60644;55.858;37.390;2022-12-11T14:01:23;0.08;76.15
72602;DHT22;60644;55.858;37.390;2022-12-11T14:03:52;0.07;76.08
72602;DHT22;60644;55.858;37.390;2022-12-11T14:06:19;0.07;75.88
72602;DHT22;60644;55.858;37.390;2022-12-11T14:08:49;0.07;75.64
72602;DHT22;60644;55.858;37.390;2022-12-11T14:11:21;-0.00;76.02
72602;DHT22;60644;55.858;37.390;2022-12-11T14:13:48;-0.05;76.16
72602;DHT22;60644;55.858;37.390;2022-12-11T14:16:22;-0.08;76.31
72602;DHT22;60644;55.858;37.390;2022-12-11T14:18:49;-0.09;76.12
72602;DHT22;60644;55.858;37.390;2022-12-11T14:21:19;-0.13;76.68
72602;DHT22;60644;55.858;37.390;2022-12-11T14:23:54;-0.13;76.47
72602;DHT22;60644;55.858;37.390;2022-12-11T14:26:24;-0.10;76.48
72602;DHT22;60644;55.858;37.390;2022-12-11T14:28:52;-0.07;76.37
72602;DHT22;60644;55.858;37.390;2022-12-11T14:34:03;-0.06;76.08
72602;DHT22;60644;55.858;37.390;2022-12-11T14:36:32;-0.08;76.25
72602;DHT22;60644;55.858;37.390;2022-12-11T14:44:32;-0.11;76.24
72602;DHT22;60644;55.858;37.390;2022-12-11T14:47:04;-0.13;76.38
72602;DHT22;60644;55.858;37.390;2022-12-11T14:49:40;-0.16;76.68
72602;DHT22;60644;55.858;37.390;2022-12-11T14:52:22;-0.19;77.21
72602;DHT22;60644;55.858;37.390;2022-12-11T14:54:55;-0.15;76.73
72602;DHT22;60644;55.858;37.390;2022-12-11T14:57:27;-0.15;77.29
72602;DHT22;60644;55.858;37.390;2022-12-11T14:59:55;-0.12;77.32
72602;DHT22;60644;55.858;37.390;2022-12-11T15:02:30;-0.10;77.18
72602;DHT22;60644;55.858;37.390;2022-12-11T15:07:29;-0.07;77.09
72602;DHT22;60644;55.858;37.390;2022-12-11T15:09:55;-0.01;77.32
72602;DHT22;60644;55.858;37.390;2022-12-11T15:12:21;0.04;77.49
72602;DHT22;60644;55.858;37.390;2022-12-11T15:14:54;0.10;77.42
72602;DHT22;60644;55.858;37.390;2022-12-11T15:17:21;0.08;77.53
72602;DHT22;60644;55.858;37.390;2022-12-11T15:19:54;0.12;77.63
72602;DHT22;60644;55.858;37.390;2022-12-11T15:22:22;0.15;77.56
72602;DHT22;60644;55.858;37.390;2022-12-11T15:24:52;0.19;77.53
72602;DHT22;60644;55.858;37.390;2022-12-11T15:30:00;0.25;78.18
72602;DHT22;60644;55.858;37.390;2022-12-11T15:32:29;0.30;77.76
72602;DHT22;60644;55.858;37.390;2022-12-11T15:34:57;0.28;77.52
72602;DHT22;60644;55.858;37.390;2022-12-11T15:37:30;0.24;77.97
72602;DHT22;60644;55.858;37.390;2022-12-11T15:39:58;0.27;77.82
72602;DHT22;60644;55.858;37.390;2022-12-11T15:42:25;0.24;78.17
72602;DHT22;60644;55.858;37.390;2022-12-11T15:44:52;0.25;77.42
72602;DHT22;60644;55.858;37.390;2022-12-11T15:47:25;0.23;77.34
72602;DHT22;60644;55.858;37.390;2022-12-11T15:52:42;0.16;77.06
72602;DHT22;60644;55.858;37.390;2022-12-11T15:55:08;0.09;77.54
72602;DHT22;60644;55.858;37.390;2022-12-11T15:57:35;0.06;77.56
72602;DHT22;60644;55.858;37.390;2022-12-11T16:00:02;0.04;77.26
72602;DHT22;60644;55.858;37.390;2022-12-11T16:02:31;0.02;77.65
72602;DHT22;60644;55.858;37.390;2022-12-11T16:04:57;0.01;77.47
72602;DHT22;60644;55.858;37.390;2022-12-11T16:07:25;0.05;77.58
72602;DHT22;60644;55.858;37.390;2022-12-11T16:09:52;0.04;77.63
72602;DHT22;60644;55.858;37.390;2022-12-11T16:12:18;0.05;77.60
72602;DHT22;60644;55.858;37.390;2022-12-11T16:14:45;0.07;77.84
72602;DHT22;60644;55.858;37.390;2022-12-11T16:17:13;0.12;77.63
72602;DHT22;60644;55.858;37.390;2022-12-11T16:19:40;0.12;78.12
72602;DHT22;60644;55.858;37.390;2022-12-11T16:22:07;0.13;77.86
72602;DHT22;60644;55.858;37.390;2022-12-11T16:24:36;0.13;77.81
72602;DHT22;60644;55.858;37.390;2022-12-11T16:27:03;0.15;77.33
72602;DHT22;60644;55.858;37.390;2022-12-11T16:29:32;0.09;77.85
72602;DHT22;60644;55.858;37.390;2022-12-11T16:31:58;0.13;78.67
72602;DHT22;60644;55.858;37.390;2022-12-11T16:34:27;0.18;78.18
72602;DHT22;60644;55.858;37.390;2022-12-11T16:36:56;0.21;78.29
72602;DHT22;60644;55.858;37.390;2022-12-11T16:39:23;0.23;78.30
72602;DHT22;60644;55.858;37.390;2022-12-11T16:41:48;0.22;78.05
72602;DHT22;60644;55.858;37.390;2022-12-11T16:44:23;0.22;78.86
72602;DHT22;60644;55.858;37.390;2022-12-11T16:46:53;0.23;78.37
72602;DHT22;60644;55.858;37.390;2022-12-11T16:49:19;0.27;78.09
72602;DHT22;60644;55.858;37.390;2022-12-11T16:51:45;0.25;79.22
72602;DHT22;60644;55.858;37.390;2022-12-11T16:54:11;0.30;79.06
72602;DHT22;60644;55.858;37.390;2022-12-11T16:56:37;0.29;78.79
72602;DHT22;60644;55.858;37.390;2022-12-11T16:59:04;0.32;79.65
72602;DHT22;60644;55.858;37.390;2022-12-11T17:01:30;0.31;79.55
72602;DHT22;60644;55.858;37.390;2022-12-11T17:03:56;0.28;79.41
72602;DHT22;60644;55.858;37.390;2022-12-11T17:06:22;0.30;79.07
72602;DHT22;60644;55.858;37.390;2022-12-11T17:08:48;0.25;79.82
72602;DHT22;60644;55.858;37.390;2022-12-11T17:11:16;0.31;79.78
72602;DHT22;60644;55.858;37.390;2022-12-11T17:13:43;0.30;80.17
72602;DHT22;60644;55.858;37.390;2022-12-11T17:16:12;0.37;79.09
72602;DHT22;60644;55.858;37.390;2022-12-11T17:18:38;0.33;79.75